Map

Track Data

SID SEASON NUMBER BASIN SUBBASIN NAME ISO_TIME NATURE LAT LON WMO_WIND WMO_PRES WMO_AGENCY TRACK_TYPE DIST2LAND LANDFALL IFLAG USA_AGENCY USA_ATCF_ID USA_LAT USA_LON USA_RECORD USA_STATUS USA_WIND USA_PRES USA_SSHS USA_R34_NE USA_R34_SE USA_R34_SW USA_R34_NW USA_R50_NE USA_R50_SE USA_R50_SW USA_R50_NW USA_R64_NE USA_R64_SE USA_R64_SW USA_R64_NW USA_POCI USA_ROCI USA_RMW USA_EYE TOKYO_LAT TOKYO_LON TOKYO_GRADE TOKYO_WIND TOKYO_PRES TOKYO_R50_DIR TOKYO_R50_LONG TOKYO_R50_SHORT TOKYO_R30_DIR TOKYO_R30_LONG TOKYO_R30_SHORT TOKYO_LAND CMA_LAT CMA_LON CMA_CAT CMA_WIND CMA_PRES HKO_LAT HKO_LON HKO_CAT HKO_WIND HKO_PRES NEWDELHI_LAT NEWDELHI_LON NEWDELHI_GRADE NEWDELHI_WIND NEWDELHI_PRES NEWDELHI_CI NEWDELHI_DP NEWDELHI_POCI REUNION_LAT REUNION_LON REUNION_TYPE REUNION_WIND REUNION_PRES REUNION_TNUM REUNION_CI REUNION_RMW REUNION_R34_NE REUNION_R34_SE REUNION_R34_SW REUNION_R34_NW REUNION_R50_NE REUNION_R50_SE REUNION_R50_SW REUNION_R50_NW REUNION_R64_NE REUNION_R64_SE REUNION_R64_SW REUNION_R64_NW BOM_LAT BOM_LON BOM_TYPE BOM_WIND BOM_PRES BOM_TNUM BOM_CI BOM_RMW BOM_R34_NE BOM_R34_SE BOM_R34_SW BOM_R34_NW BOM_R50_NE BOM_R50_SE BOM_R50_SW BOM_R50_NW BOM_R64_NE BOM_R64_SE BOM_R64_SW BOM_R64_NW BOM_ROCI BOM_POCI BOM_EYE BOM_POS_METHOD BOM_PRES_METHOD NADI_LAT NADI_LON NADI_CAT NADI_WIND NADI_PRES WELLINGTON_LAT WELLINGTON_LON WELLINGTON_WIND WELLINGTON_PRES DS824_LAT DS824_LON DS824_STAGE DS824_WIND DS824_PRES TD9636_LAT TD9636_LON TD9636_STAGE TD9636_WIND TD9636_PRES TD9635_LAT TD9635_LON TD9635_WIND TD9635_PRES TD9635_ROCI NEUMANN_LAT NEUMANN_LON NEUMANN_CLASS NEUMANN_WIND NEUMANN_PRES MLC_LAT MLC_LON MLC_CLASS MLC_WIND MLC_PRES USA_GUST BOM_GUST BOM_GUST_PER REUNION_GUST REUNION_GUST_PER USA_SEAHGT USA_SEARAD_NE USA_SEARAD_SE USA_SEARAD_SW USA_SEARAD_NW STORM_SPEED STORM_DIR
1935049S13055 1935 9 SI MM NOT_NAMED 1935-02-18 06:00:00 NR -13.4000 55.1000 reunion main 535 491 _____O________ -1 -13.4000 55.1000 99 9.90000 8 250
1935049S13055 1935 9 SI MM NOT_NAMED 1935-02-18 09:00:00 NR -13.5446 54.6905 main 491 442 _____P________ -1 -13.5446 54.6905 99 8 250
1935049S13055 1935 9 SI MM NOT_NAMED 1935-02-18 12:00:00 NR -13.6941 54.2815 main 442 398 _____P________ -1 -13.6941 54.2815 99 9 249
1935049S13055 1935 9 SI MM NOT_NAMED 1935-02-18 15:00:00 NR -13.8538 53.8743 main 393 349 _____P________ -1 -13.8538 53.8743 99 9 247
1935049S13055 1935 9 SI MM NOT_NAMED 1935-02-18 18:00:00 NR -14.0294 53.4699 main 349 301 _____P________ -1 -14.0294 53.4699 99 9 245
1935049S13055 1935 9 SI MM NOT_NAMED 1935-02-18 21:00:00 NR -14.2263 53.0693 main 301 252 _____P________ -1 -14.2263 53.0693 99 9 241
1935049S13055 1935 9 SI MM NOT_NAMED 1935-02-19 00:00:00 NR -14.4500 52.6735 main 252 201 _____P________ -1 -14.4500 52.6735 99 9 238
1935049S13055 1935 9 SI MM NOT_NAMED 1935-02-19 03:00:00 NR -14.7060 52.2835 main 201 152 _____P________ -1 -14.7060 52.2835 99 9 234
1935049S13055 1935 9 SI MM NOT_NAMED 1935-02-19 06:00:00 NR -15.0000 51.9000 reunion main 152 107 _____O________ -1 -15.0000 51.9000 99 9.90000 10 229
1935049S13055 1935 9 SI MM NOT_NAMED 1935-02-19 09:00:00 NR -15.3359 51.5240 main 107 78 _____P________ -1 -15.3359 51.5240 99 10 225
1935049S13055 1935 9 SI MM NOT_NAMED 1935-02-19 12:00:00 NR -15.7115 51.1566 main 82 63 _____P________ -1 -15.7115 51.1566 99 11 222
1935049S13055 1935 9 SI MM NOT_NAMED 1935-02-19 15:00:00 NR -16.1234 50.7989 main 63 54 _____P________ -1 -16.1234 50.7989 99 11 218
1935049S13055 1935 9 SI MM NOT_NAMED 1935-02-19 18:00:00 NR -16.5678 50.4522 main 74 38 _____P________ -1 -16.5678 50.4522 99 11 215
1935049S13055 1935 9 SI MM NOT_NAMED 1935-02-19 21:00:00 NR -17.0412 50.1176 main 38 38 _____P________ -1 -17.0412 50.1176 99 12 213
1935049S13055 1935 9 SI MM NOT_NAMED 1935-02-20 00:00:00 NR -17.5400 49.7966 main 38 10 _____P________ -1 -17.5400 49.7966 99 12 210
1935049S13055 1935 9 SI MM NOT_NAMED 1935-02-20 03:00:00 NR -18.0608 49.4902 main 10 0 _____P________ -1 -18.0608 49.4902 99 12 208
1935049S13055 1935 9 SI MM NOT_NAMED 1935-02-20 06:00:00 NR -18.6000 49.2000 reunion main 0 0 _____O________ -1 -18.6000 49.2000 99 9.90000 12 206
1935049S13055 1935 9 SI MM NOT_NAMED 1935-02-20 09:00:00 NR -19.1544 48.9266 main 0 0 _____P________ -1 -19.1544 48.9266 99 12 204
1935049S13055 1935 9 SI MM NOT_NAMED 1935-02-20 12:00:00 NR -19.7221 48.6683 main 0 0 _____P________ -1 -19.7221 48.6683 99 12 202
1935049S13055 1935 9 SI MM NOT_NAMED 1935-02-20 15:00:00 NR -20.3011 48.4227 main 0 0 _____P________ -1 -20.3011 48.4227 99 13 201
1935049S13055 1935 9 SI MM NOT_NAMED 1935-02-20 18:00:00 NR -20.8897 48.1873 main 0 0 _____P________ -1 -20.8897 48.1873 99 13 200
1935049S13055 1935 9 SI MM NOT_NAMED 1935-02-20 21:00:00 NR -21.4859 47.9597 main 0 0 _____P________ -1 -21.4859 47.9597 99 13 199
1935049S13055 1935 9 SI MM NOT_NAMED 1935-02-21 00:00:00 NR -22.0878 47.7376 main 0 0 _____P________ -1 -22.0878 47.7376 99 13 199
1935049S13055 1935 9 SI MM NOT_NAMED 1935-02-21 03:00:00 NR -22.6931 47.5185 main 0 0 _____P________ -1 -22.6931 47.5185 99 13 198
1935049S13055 1935 9 SI MM NOT_NAMED 1935-02-21 06:00:00 NR -23.3000 47.3000 reunion main 0 _____O________ -1 -23.3000 47.3000 99 9.90000 13 198

About IBTrACS Database

This database is a web-friendly format of International Best Track Archive for Climate Stewardship (IBTrACS), a global best track data archive curated by NOAA dating back to 1842.

Updated: 2021-11-26